Shinkai Maru — JJ4012 — position and weather

sailwx.info

Track history (hours):
 
Tides and Currents Weather Stations Pressure Air Temp Water Temp Dewpoint Dewpoint Depression Visibility Wind Speed Wind Dir Waves Ship Positions

Shinkai Maru

Last reported at 2014-Oct-19 12:33 UTC. Time now 2014-Oct-23 00:05 UTC.
Position N 34°37' E 135°01'.

Length 76 m; draft 4.4 m.

Type: Cargo ship. MMSI: 431301346.

Date/timePositionNaut miles runAvg speedWind from/ knotsBaromVisibWave heightAir tempDewpointWater temp
2014-Oct-19 12:33N 34°37' E 135°01'1110.6
2014-Oct-19 11:33N 34°27' E 135°04'1212.4
2014-Oct-19 10:33N 34°15' E 134°60'24110.4
2014-Oct-18 11:22N 35°10' E 139°44'911.7
2014-Oct-18 10:33N 35°19' E 139°43'1110.7
2014-Oct-18 09:32N 35°29' E 139°50'2 0.1
2014-Oct-16 18:23N 35°29' E 139°52'911.3
2014-Oct-16 17:33N 35°22' E 139°45'1110.3
2014-Oct-16 16:28N 35°10' E 139°47'243 9.3
2014-Oct-15 14:20N 34°18' E 134°59'1012.2
2014-Oct-15 13:32N 34°28' E 135°01'9 9.2
2014-Oct-15 12:32N 34°37' E 134°58'3 0.3
2014-Oct-14 23:32N 34°38' E 134°54'1010.1
2014-Oct-14 22:33N 34°34' E 135°05'2210.7
2014-Oct-14 20:33N 34°13' E 134°60'1111.0
2014-Oct-14 19:33N 34°02' E 135°01'  
2014-Oct-09 16:17N 34°19' E 134°59'1013.0
2014-Oct-09 15:32N 34°29' E 135°01'8 8.2
2014-Oct-09 14:31N 34°36' E 134°57'  
Track history (hours):
 
Tides and Currents Weather Stations Pressure Air Temp Water Temp Dewpoint Dewpoint Depression Visibility Wind Speed Wind Dir Waves Ship Positions

Shinkai Maru

Last reported at 2014-Oct-19 12:33 UTC. Time now 2014-Oct-23 00:05 UTC.
Position N 34°37' E 135°01'.

Length 76 m; draft 4.4 m.

Type: Cargo ship. MMSI: 431301346.

Date/timePositionNaut miles runAvg speedWind from/ knotsBaromVisibWave heightAir tempDewpointWater temp
2014-Oct-19 12:33N 34°37' E 135°01'1110.6
2014-Oct-19 11:33N 34°27' E 135°04'1212.4
2014-Oct-19 10:33N 34°15' E 134°60'24110.4
2014-Oct-18 11:22N 35°10' E 139°44'911.7
2014-Oct-18 10:33N 35°19' E 139°43'1110.7
2014-Oct-18 09:32N 35°29' E 139°50'2 0.1
2014-Oct-16 18:23N 35°29' E 139°52'911.3
2014-Oct-16 17:33N 35°22' E 139°45'1110.3
2014-Oct-16 16:28N 35°10' E 139°47'243 9.3
2014-Oct-15 14:20N 34°18' E 134°59'1012.2
2014-Oct-15 13:32N 34°28' E 135°01'9 9.2
2014-Oct-15 12:32N 34°37' E 134°58'3 0.3
2014-Oct-14 23:32N 34°38' E 134°54'1010.1
2014-Oct-14 22:33N 34°34' E 135°05'2210.7
2014-Oct-14 20:33N 34°13' E 134°60'1111.0
2014-Oct-14 19:33N 34°02' E 135°01'  
2014-Oct-09 16:17N 34°19' E 134°59'1013.0
2014-Oct-09 15:32N 34°29' E 135°01'8 8.2
2014-Oct-09 14:31N 34°36' E 134°57'  

Dump ship's entire track history